sensor_id;sensor_type;location;lat;lon;timestamp;P1;durP1;ratioP1;P2;durP2;ratioP2
12976;SDS011;6553;48.412;9.514;2022-12-18T00:01:22;9.07;;;7.38;;
12976;SDS011;6553;48.412;9.514;2022-12-18T00:03:58;8.43;;;6.70;;
12976;SDS011;6553;48.412;9.514;2022-12-18T00:06:26;9.23;;;7.35;;
12976;SDS011;6553;48.412;9.514;2022-12-18T00:08:55;8.32;;;7.38;;
12976;SDS011;6553;48.412;9.514;2022-12-18T00:11:23;8.18;;;7.00;;
12976;SDS011;6553;48.412;9.514;2022-12-18T00:13:53;8.20;;;7.30;;
12976;SDS011;6553;48.412;9.514;2022-12-18T00:16:23;9.43;;;7.95;;
12976;SDS011;6553;48.412;9.514;2022-12-18T00:18:52;9.27;;;8.27;;
12976;SDS011;6553;48.412;9.514;2022-12-18T00:21:23;7.85;;;7.05;;
12976;SDS011;6553;48.412;9.514;2022-12-18T00:23:49;7.70;;;6.90;;
12976;SDS011;6553;48.412;9.514;2022-12-18T00:26:20;8.50;;;7.32;;
12976;SDS011;6553;48.412;9.514;2022-12-18T00:28:53;7.88;;;6.75;;
12976;SDS011;6553;48.412;9.514;2022-12-18T00:31:22;7.97;;;7.05;;
12976;SDS011;6553;48.412;9.514;2022-12-18T00:33:53;8.77;;;7.35;;
12976;SDS011;6553;48.412;9.514;2022-12-18T00:36:22;8.52;;;7.63;;
12976;SDS011;6553;48.412;9.514;2022-12-18T00:38:51;7.97;;;6.95;;
12976;SDS011;6553;48.412;9.514;2022-12-18T00:41:19;7.80;;;7.00;;
12976;SDS011;6553;48.412;9.514;2022-12-18T00:44:04;7.90;;;7.07;;
12976;SDS011;6553;48.412;9.514;2022-12-18T00:46:32;9.10;;;7.55;;
12976;SDS011;6553;48.412;9.514;2022-12-18T00:48:58;8.18;;;6.78;;
12976;SDS011;6553;48.412;9.514;2022-12-18T00:51:24;9.10;;;7.18;;
12976;SDS011;6553;48.412;9.514;2022-12-18T00:53:50;9.57;;;7.13;;
12976;SDS011;6553;48.412;9.514;2022-12-18T00:56:16;8.27;;;7.35;;
12976;SDS011;6553;48.412;9.514;2022-12-18T00:58:42;8.95;;;7.57;;
12976;SDS011;6553;48.412;9.514;2022-12-18T01:01:08;9.07;;;7.53;;
12976;SDS011;6553;48.412;9.514;2022-12-18T01:03:34;9.85;;;7.90;;
12976;SDS011;6553;48.412;9.514;2022-12-18T01:06:04;8.27;;;7.40;;
12976;SDS011;6553;48.412;9.514;2022-12-18T01:08:36;8.50;;;7.60;;
12976;SDS011;6553;48.412;9.514;2022-12-18T01:11:07;9.73;;;7.82;;
12976;SDS011;6553;48.412;9.514;2022-12-18T01:13:37;8.63;;;7.72;;
12976;SDS011;6553;48.412;9.514;2022-12-18T01:16:04;8.85;;;7.65;;
12976;SDS011;6553;48.412;9.514;2022-12-18T01:18:32;8.70;;;7.40;;
12976;SDS011;6553;48.412;9.514;2022-12-18T01:20:58;9.20;;;7.57;;
12976;SDS011;6553;48.412;9.514;2022-12-18T01:23:24;7.88;;;7.05;;
12976;SDS011;6553;48.412;9.514;2022-12-18T01:25:51;8.52;;;7.57;;
12976;SDS011;6553;48.412;9.514;2022-12-18T01:28:17;9.35;;;7.65;;
12976;SDS011;6553;48.412;9.514;2022-12-18T01:30:43;7.72;;;6.70;;
12976;SDS011;6553;48.412;9.514;2022-12-18T01:33:09;10.00;;;7.70;;
12976;SDS011;6553;48.412;9.514;2022-12-18T01:35:39;9.35;;;6.93;;
12976;SDS011;6553;48.412;9.514;2022-12-18T01:38:07;8.48;;;7.28;;
12976;SDS011;6553;48.412;9.514;2022-12-18T01:40:33;8.75;;;7.15;;
12976;SDS011;6553;48.412;9.514;2022-12-18T01:42:59;8.63;;;7.70;;
12976;SDS011;6553;48.412;9.514;2022-12-18T01:45:26;7.78;;;6.75;;
12976;SDS011;6553;48.412;9.514;2022-12-18T01:53:18;8.68;;;7.43;;
12976;SDS011;6553;48.412;9.514;2022-12-18T01:55:55;8.82;;;7.65;;
12976;SDS011;6553;48.412;9.514;2022-12-18T01:58:24;8.85;;;7.22;;
12976;SDS011;6553;48.412;9.514;2022-12-18T02:01:02;8.43;;;7.63;;
12976;SDS011;6553;48.412;9.514;2022-12-18T02:03:31;8.82;;;7.60;;
12976;SDS011;6553;48.412;9.514;2022-12-18T02:06:00;7.78;;;6.95;;
12976;SDS011;6553;48.412;9.514;2022-12-18T02:09:03;8.88;;;7.80;;
12976;SDS011;6553;48.412;9.514;2022-12-18T02:11:44;8.45;;;7.57;;
12976;SDS011;6553;48.412;9.514;2022-12-18T02:14:38;8.00;;;7.20;;
12976;SDS011;6553;48.412;9.514;2022-12-18T02:17:25;9.07;;;7.53;;
12976;SDS011;6553;48.412;9.514;2022-12-18T02:20:20;8.15;;;7.30;;
12976;SDS011;6553;48.412;9.514;2022-12-18T02:28:31;8.68;;;7.65;;
12976;SDS011;6553;48.412;9.514;2022-12-18T02:31:04;9.02;;;7.25;;
12976;SDS011;6553;48.412;9.514;2022-12-18T02:33:36;8.85;;;7.68;;
12976;SDS011;6553;48.412;9.514;2022-12-18T02:36:05;8.38;;;7.18;;
12976;SDS011;6553;48.412;9.514;2022-12-18T02:38:33;8.48;;;7.60;;
12976;SDS011;6553;48.412;9.514;2022-12-18T02:41:08;7.90;;;7.18;;
12976;SDS011;6553;48.412;9.514;2022-12-18T02:43:35;7.88;;;7.07;;
12976;SDS011;6553;48.412;9.514;2022-12-18T02:46:01;7.90;;;6.90;;
12976;SDS011;6553;48.412;9.514;2022-12-18T02:57:37;7.55;;;6.80;;
12976;SDS011;6553;48.412;9.514;2022-12-18T03:00:27;7.57;;;6.65;;
12976;SDS011;6553;48.412;9.514;2022-12-18T03:03:14;8.00;;;7.20;;
12976;SDS011;6553;48.412;9.514;2022-12-18T03:05:57;7.68;;;6.85;;
12976;SDS011;6553;48.412;9.514;2022-12-18T03:08:44;7.95;;;7.05;;
12976;SDS011;6553;48.412;9.514;2022-12-18T03:11:16;8.00;;;7.20;;
12976;SDS011;6553;48.412;9.514;2022-12-18T03:14:04;7.93;;;7.13;;
12976;SDS011;6553;48.412;9.514;2022-12-18T03:16:33;7.55;;;6.75;;
12976;SDS011;6553;48.412;9.514;2022-12-18T03:19:05;7.25;;;6.55;;
12976;SDS011;6553;48.412;9.514;2022-12-18T03:21:43;7.90;;;6.88;;
12976;SDS011;6553;48.412;9.514;2022-12-18T03:24:23;7.43;;;6.70;;
12976;SDS011;6553;48.412;9.514;2022-12-18T03:26:52;7.90;;;6.85;;
12976;SDS011;6553;48.412;9.514;2022-12-18T03:29:27;7.60;;;6.80;;
12976;SDS011;6553;48.412;9.514;2022-12-18T03:32:19;7.07;;;6.38;;
12976;SDS011;6553;48.412;9.514;2022-12-18T03:35:13;7.70;;;6.90;;
12976;SDS011;6553;48.412;9.514;2022-12-18T03:37:46;6.82;;;6.18;;
12976;SDS011;6553;48.412;9.514;2022-12-18T03:40:12;8.30;;;6.75;;
12976;SDS011;6553;48.412;9.514;2022-12-18T03:42:44;7.57;;;6.78;;
12976;SDS011;6553;48.412;9.514;2022-12-18T03:45:28;8.57;;;7.20;;
12976;SDS011;6553;48.412;9.514;2022-12-18T03:48:08;6.82;;;6.00;;
12976;SDS011;6553;48.412;9.514;2022-12-18T03:50:57;7.22;;;6.53;;
12976;SDS011;6553;48.412;9.514;2022-12-18T03:53:44;6.85;;;6.15;;
12976;SDS011;6553;48.412;9.514;2022-12-18T03:56:23;7.80;;;6.68;;
12976;SDS011;6553;48.412;9.514;2022-12-18T03:58:57;6.65;;;6.05;;
12976;SDS011;6553;48.412;9.514;2022-12-18T04:01:30;7.53;;;6.22;;
12976;SDS011;6553;48.412;9.514;2022-12-18T04:04:03;7.10;;;6.40;;
12976;SDS011;6553;48.412;9.514;2022-12-18T04:06:35;7.13;;;6.43;;
12976;SDS011;6553;48.412;9.514;2022-12-18T04:09:03;7.95;;;6.60;;
12976;SDS011;6553;48.412;9.514;2022-12-18T04:11:32;6.15;;;5.55;;
12976;SDS011;6553;48.412;9.514;2022-12-18T04:13:59;7.30;;;6.60;;
12976;SDS011;6553;48.412;9.514;2022-12-18T04:16:25;7.07;;;6.38;;
12976;SDS011;6553;48.412;9.514;2022-12-18T04:18:55;6.80;;;6.10;;
12976;SDS011;6553;48.412;9.514;2022-12-18T04:21:23;7.53;;;6.72;;
12976;SDS011;6553;48.412;9.514;2022-12-18T04:23:49;7.53;;;6.78;;
12976;SDS011;6553;48.412;9.514;2022-12-18T04:26:18;6.43;;;5.82;;
12976;SDS011;6553;48.412;9.514;2022-12-18T04:29:09;6.55;;;5.78;;
12976;SDS011;6553;48.412;9.514;2022-12-18T04:31:35;7.72;;;6.30;;
12976;SDS011;6553;48.412;9.514;2022-12-18T04:34:02;6.55;;;5.95;;
12976;SDS011;6553;48.412;9.514;2022-12-18T04:36:34;6.90;;;6.20;;
12976;SDS011;6553;48.412;9.514;2022-12-18T04:39:00;6.85;;;6.15;;
12976;SDS011;6553;48.412;9.514;2022-12-18T04:41:26;6.38;;;5.75;;
12976;SDS011;6553;48.412;9.514;2022-12-18T04:43:52;6.57;;;5.97;;
12976;SDS011;6553;48.412;9.514;2022-12-18T04:46:18;6.53;;;5.88;;
12976;SDS011;6553;48.412;9.514;2022-12-18T04:48:45;5.53;;;5.03;;
12976;SDS011;6553;48.412;9.514;2022-12-18T04:51:11;6.50;;;5.90;;
12976;SDS011;6553;48.412;9.514;2022-12-18T04:53:38;6.03;;;5.45;;
12976;SDS011;6553;48.412;9.514;2022-12-18T04:56:11;5.95;;;5.35;;
12976;SDS011;6553;48.412;9.514;2022-12-18T04:58:40;6.03;;;5.43;;
12976;SDS011;6553;48.412;9.514;2022-12-18T05:01:08;6.32;;;5.72;;
12976;SDS011;6553;48.412;9.514;2022-12-18T05:03:36;6.03;;;5.43;;
12976;SDS011;6553;48.412;9.514;2022-12-18T05:06:03;6.25;;;5.65;;
12976;SDS011;6553;48.412;9.514;2022-12-18T05:08:30;6.13;;;5.63;;
12976;SDS011;6553;48.412;9.514;2022-12-18T05:11:11;6.45;;;5.85;;
12976;SDS011;6553;48.412;9.514;2022-12-18T05:13:40;5.57;;;5.07;;
12976;SDS011;6553;48.412;9.514;2022-12-18T05:16:09;6.05;;;5.45;;
12976;SDS011;6553;48.412;9.514;2022-12-18T05:18:35;6.22;;;5.63;;
12976;SDS011;6553;48.412;9.514;2022-12-18T05:21:02;5.88;;;5.25;;
12976;SDS011;6553;48.412;9.514;2022-12-18T05:23:29;5.95;;;5.35;;
12976;SDS011;6553;48.412;9.514;2022-12-18T05:25:56;6.43;;;5.65;;
12976;SDS011;6553;48.412;9.514;2022-12-18T05:28:28;6.05;;;5.55;;
12976;SDS011;6553;48.412;9.514;2022-12-18T05:30:58;5.97;;;5.38;;
12976;SDS011;6553;48.412;9.514;2022-12-18T05:33:29;6.55;;;5.95;;
12976;SDS011;6553;48.412;9.514;2022-12-18T05:36:03;6.15;;;5.30;;
12976;SDS011;6553;48.412;9.514;2022-12-18T05:38:33;5.95;;;5.35;;
12976;SDS011;6553;48.412;9.514;2022-12-18T05:41:02;6.47;;;5.88;;
12976;SDS011;6553;48.412;9.514;2022-12-18T05:43:28;6.20;;;5.60;;
12976;SDS011;6553;48.412;9.514;2022-12-18T05:45:55;6.13;;;5.53;;
12976;SDS011;6553;48.412;9.514;2022-12-18T05:48:22;6.10;;;5.45;;
12976;SDS011;6553;48.412;9.514;2022-12-18T05:50:48;5.63;;;5.13;;
12976;SDS011;6553;48.412;9.514;2022-12-18T05:53:16;6.15;;;5.50;;
12976;SDS011;6553;48.412;9.514;2022-12-18T05:55:44;5.72;;;5.15;;
12976;SDS011;6553;48.412;9.514;2022-12-18T05:58:11;5.93;;;5.32;;
12976;SDS011;6553;48.412;9.514;2022-12-18T06:00:40;5.80;;;5.20;;
12976;SDS011;6553;48.412;9.514;2022-12-18T06:03:10;5.93;;;5.40;;
12976;SDS011;6553;48.412;9.514;2022-12-18T06:05:39;6.45;;;5.75;;
12976;SDS011;6553;48.412;9.514;2022-12-18T06:08:10;6.70;;;6.00;;
12976;SDS011;6553;48.412;9.514;2022-12-18T06:10:38;6.00;;;5.40;;
12976;SDS011;6553;48.412;9.514;2022-12-18T06:13:04;6.05;;;5.45;;
12976;SDS011;6553;48.412;9.514;2022-12-18T06:15:30;5.93;;;5.32;;
12976;SDS011;6553;48.412;9.514;2022-12-18T06:17:57;6.43;;;5.82;;
12976;SDS011;6553;48.412;9.514;2022-12-18T06:20:22;6.68;;;5.97;;
12976;SDS011;6553;48.412;9.514;2022-12-18T06:22:48;6.47;;;5.75;;
12976;SDS011;6553;48.412;9.514;2022-12-18T06:25:14;5.90;;;5.35;;
12976;SDS011;6553;48.412;9.514;2022-12-18T06:27:40;5.97;;;5.38;;
12976;SDS011;6553;48.412;9.514;2022-12-18T06:30:06;5.78;;;5.18;;
12976;SDS011;6553;48.412;9.514;2022-12-18T06:32:33;6.25;;;5.65;;
12976;SDS011;6553;48.412;9.514;2022-12-18T06:34:58;6.78;;;6.07;;
12976;SDS011;6553;48.412;9.514;2022-12-18T06:37:24;6.25;;;5.70;;
12976;SDS011;6553;48.412;9.514;2022-12-18T06:39:51;5.20;;;4.70;;
12976;SDS011;6553;48.412;9.514;2022-12-18T06:42:18;5.50;;;5.00;;
12976;SDS011;6553;48.412;9.514;2022-12-18T06:44:46;6.43;;;5.78;;
12976;SDS011;6553;48.412;9.514;2022-12-18T06:47:12;5.88;;;5.28;;
12976;SDS011;6553;48.412;9.514;2022-12-18T06:49:38;5.78;;;5.15;;
12976;SDS011;6553;48.412;9.514;2022-12-18T06:52:03;5.88;;;5.30;;
12976;SDS011;6553;48.412;9.514;2022-12-18T06:54:29;5.70;;;5.20;;
12976;SDS011;6553;48.412;9.514;2022-12-18T06:56:55;6.25;;;5.65;;
12976;SDS011;6553;48.412;9.514;2022-12-18T06:59:21;5.85;;;5.35;;
12976;SDS011;6553;48.412;9.514;2022-12-18T07:01:46;6.13;;;5.53;;
12976;SDS011;6553;48.412;9.514;2022-12-18T07:04:12;5.72;;;5.22;;
12976;SDS011;6553;48.412;9.514;2022-12-18T07:06:38;6.07;;;5.55;;
12976;SDS011;6553;48.412;9.514;2022-12-18T07:09:04;6.15;;;5.55;;
12976;SDS011;6553;48.412;9.514;2022-12-18T07:11:31;6.05;;;5.45;;
12976;SDS011;6553;48.412;9.514;2022-12-18T07:13:58;5.70;;;5.20;;
12976;SDS011;6553;48.412;9.514;2022-12-18T07:16:24;5.93;;;5.32;;
12976;SDS011;6553;48.412;9.514;2022-12-18T07:18:50;6.00;;;5.25;;
12976;SDS011;6553;48.412;9.514;2022-12-18T07:21:18;5.75;;;5.15;;
12976;SDS011;6553;48.412;9.514;2022-12-18T07:23:44;6.00;;;5.40;;
12976;SDS011;6553;48.412;9.514;2022-12-18T07:26:13;5.82;;;5.20;;
12976;SDS011;6553;48.412;9.514;2022-12-18T07:28:41;6.57;;;5.90;;
12976;SDS011;6553;48.412;9.514;2022-12-18T07:31:10;6.15;;;5.55;;
12976;SDS011;6553;48.412;9.514;2022-12-18T07:33:39;6.45;;;5.85;;
12976;SDS011;6553;48.412;9.514;2022-12-18T07:36:06;6.70;;;6.10;;
12976;SDS011;6553;48.412;9.514;2022-12-18T07:38:34;6.35;;;5.75;;
12976;SDS011;6553;48.412;9.514;2022-12-18T07:41:02;5.88;;;5.38;;
12976;SDS011;6553;48.412;9.514;2022-12-18T07:43:28;5.70;;;5.20;;
12976;SDS011;6553;48.412;9.514;2022-12-18T07:45:54;6.28;;;5.72;;
12976;SDS011;6553;48.412;9.514;2022-12-18T07:48:20;6.22;;;5.63;;
12976;SDS011;6553;48.412;9.514;2022-12-18T07:50:46;5.93;;;5.32;;
12976;SDS011;6553;48.412;9.514;2022-12-18T07:53:11;5.95;;;5.35;;
12976;SDS011;6553;48.412;9.514;2022-12-18T07:55:37;5.82;;;5.22;;
12976;SDS011;6553;48.412;9.514;2022-12-18T07:58:03;5.82;;;5.30;;
12976;SDS011;6553;48.412;9.514;2022-12-18T08:00:30;6.25;;;5.53;;
12976;SDS011;6553;48.412;9.514;2022-12-18T08:02:56;6.80;;;5.78;;
12976;SDS011;6553;48.412;9.514;2022-12-18T08:05:22;5.90;;;5.40;;
12976;SDS011;6553;48.412;9.514;2022-12-18T08:07:48;5.32;;;4.82;;
12976;SDS011;6553;48.412;9.514;2022-12-18T08:10:14;6.60;;;5.90;;
12976;SDS011;6553;48.412;9.514;2022-12-18T08:12:40;5.97;;;5.38;;
12976;SDS011;6553;48.412;9.514;2022-12-18T08:15:06;6.00;;;5.40;;
12976;SDS011;6553;48.412;9.514;2022-12-18T08:17:33;6.20;;;5.60;;
12976;SDS011;6553;48.412;9.514;2022-12-18T08:19:59;6.28;;;5.68;;
12976;SDS011;6553;48.412;9.514;2022-12-18T08:22:25;6.60;;;5.90;;
12976;SDS011;6553;48.412;9.514;2022-12-18T08:24:50;5.63;;;5.10;;
12976;SDS011;6553;48.412;9.514;2022-12-18T08:27:16;6.78;;;6.07;;
12976;SDS011;6553;48.412;9.514;2022-12-18T08:29:42;6.65;;;5.95;;
12976;SDS011;6553;48.412;9.514;2022-12-18T08:32:08;6.18;;;5.57;;
12976;SDS011;6553;48.412;9.514;2022-12-18T08:34:34;6.20;;;5.57;;
12976;SDS011;6553;48.412;9.514;2022-12-18T08:37:00;6.20;;;5.60;;
12976;SDS011;6553;48.412;9.514;2022-12-18T08:39:26;5.60;;;5.10;;
12976;SDS011;6553;48.412;9.514;2022-12-18T08:41:51;6.35;;;5.72;;
12976;SDS011;6553;48.412;9.514;2022-12-18T08:44:36;6.10;;;5.40;;
12976;SDS011;6553;48.412;9.514;2022-12-18T08:47:06;6.10;;;4.95;;
12976;SDS011;6553;48.412;9.514;2022-12-18T08:49:33;6.60;;;5.90;;
12976;SDS011;6553;48.412;9.514;2022-12-18T08:51:59;7.13;;;6.32;;
12976;SDS011;6553;48.412;9.514;2022-12-18T08:54:26;6.45;;;5.78;;
12976;SDS011;6553;48.412;9.514;2022-12-18T08:56:52;6.95;;;5.60;;
12976;SDS011;6553;48.412;9.514;2022-12-18T08:59:18;6.57;;;5.88;;
12976;SDS011;6553;48.412;9.514;2022-12-18T09:01:44;6.20;;;5.60;;
12976;SDS011;6553;48.412;9.514;2022-12-18T09:04:11;6.00;;;5.50;;
12976;SDS011;6553;48.412;9.514;2022-12-18T09:06:39;6.50;;;5.65;;
12976;SDS011;6553;48.412;9.514;2022-12-18T09:09:05;6.50;;;5.80;;
12976;SDS011;6553;48.412;9.514;2022-12-18T09:11:31;6.13;;;5.53;;
12976;SDS011;6553;48.412;9.514;2022-12-18T09:13:59;7.00;;;5.68;;
12976;SDS011;6553;48.412;9.514;2022-12-18T09:16:26;6.68;;;5.93;;
12976;SDS011;6553;48.412;9.514;2022-12-18T09:18:57;6.57;;;5.72;;
12976;SDS011;6553;48.412;9.514;2022-12-18T09:21:28;6.40;;;5.72;;
12976;SDS011;6553;48.412;9.514;2022-12-18T09:23:57;6.10;;;5.43;;
12976;SDS011;6553;48.412;9.514;2022-12-18T09:26:24;6.20;;;5.60;;
12976;SDS011;6553;48.412;9.514;2022-12-18T09:28:51;6.13;;;5.50;;
12976;SDS011;6553;48.412;9.514;2022-12-18T09:31:18;6.85;;;5.75;;
12976;SDS011;6553;48.412;9.514;2022-12-18T09:33:47;6.43;;;5.82;;
12976;SDS011;6553;48.412;9.514;2022-12-18T09:36:14;6.30;;;5.70;;
12976;SDS011;6553;48.412;9.514;2022-12-18T09:38:42;7.85;;;6.35;;
12976;SDS011;6553;48.412;9.514;2022-12-18T09:44:27;5.93;;;5.40;;
12976;SDS011;6553;48.412;9.514;2022-12-18T09:47:10;6.18;;;5.55;;
12976;SDS011;6553;48.412;9.514;2022-12-18T09:49:49;7.18;;;6.47;;
12976;SDS011;6553;48.412;9.514;2022-12-18T09:52:26;6.82;;;6.13;;
12976;SDS011;6553;48.412;9.514;2022-12-18T09:55:45;6.68;;;5.80;;
12976;SDS011;6553;48.412;9.514;2022-12-18T09:58:24;6.60;;;5.90;;
12976;SDS011;6553;48.412;9.514;2022-12-18T10:00:58;7.47;;;6.68;;
12976;SDS011;6553;48.412;9.514;2022-12-18T10:03:23;6.93;;;6.15;;
12976;SDS011;6553;48.412;9.514;2022-12-18T10:08:31;6.50;;;5.90;;
12976;SDS011;6553;48.412;9.514;2022-12-18T10:11:29;6.60;;;6.00;;
12976;SDS011;6553;48.412;9.514;2022-12-18T10:20:02;6.40;;;5.80;;
12976;SDS011;6553;48.412;9.514;2022-12-18T10:25:23;6.57;;;5.93;;
12976;SDS011;6553;48.412;9.514;2022-12-18T10:28:15;6.32;;;5.72;;
12976;SDS011;6553;48.412;9.514;2022-12-18T10:30:44;6.15;;;5.55;;
12976;SDS011;6553;48.412;9.514;2022-12-18T10:33:17;7.85;;;4.75;;
12976;SDS011;6553;48.412;9.514;2022-12-18T10:35:52;5.85;;;5.25;;
12976;SDS011;6553;48.412;9.514;2022-12-18T10:38:30;6.03;;;4.90;;
12976;SDS011;6553;48.412;9.514;2022-12-18T10:43:39;6.40;;;4.85;;
12976;SDS011;6553;48.412;9.514;2022-12-18T10:51:22;8.35;;;5.10;;
12976;SDS011;6553;48.412;9.514;2022-12-18T10:56:49;5.88;;;5.15;;
12976;SDS011;6553;48.412;9.514;2022-12-18T10:59:15;5.80;;;5.20;;
12976;SDS011;6553;48.412;9.514;2022-12-18T11:01:53;6.38;;;5.20;;
12976;SDS011;6553;48.412;9.514;2022-12-18T11:07:08;5.95;;;5.03;;
12976;SDS011;6553;48.412;9.514;2022-12-18T11:09:36;6.97;;;5.50;;
12976;SDS011;6553;48.412;9.514;2022-12-18T11:14:51;7.25;;;4.72;;
12976;SDS011;6553;48.412;9.514;2022-12-18T11:20:29;6.53;;;5.43;;
12976;SDS011;6553;48.412;9.514;2022-12-18T11:22:57;5.40;;;4.90;;
12976;SDS011;6553;48.412;9.514;2022-12-18T11:25:30;5.90;;;4.85;;
12976;SDS011;6553;48.412;9.514;2022-12-18T11:27:59;6.78;;;5.78;;
12976;SDS011;6553;48.412;9.514;2022-12-18T11:30:50;7.63;;;6.18;;
12976;SDS011;6553;48.412;9.514;2022-12-18T11:33:50;7.40;;;5.72;;
12976;SDS011;6553;48.412;9.514;2022-12-18T11:36:49;6.32;;;5.35;;
12976;SDS011;6553;48.412;9.514;2022-12-18T11:39:38;5.13;;;4.63;;
12976;SDS011;6553;48.412;9.514;2022-12-18T11:42:18;6.78;;;5.22;;
12976;SDS011;6553;48.412;9.514;2022-12-18T11:47:51;7.70;;;5.35;;
12976;SDS011;6553;48.412;9.514;2022-12-18T11:53:34;6.35;;;5.50;;
12976;SDS011;6553;48.412;9.514;2022-12-18T12:02:14;6.45;;;5.72;;
12976;SDS011;6553;48.412;9.514;2022-12-18T12:08:20;6.25;;;5.50;;
12976;SDS011;6553;48.412;9.514;2022-12-18T12:17:22;6.40;;;5.35;;
12976;SDS011;6553;48.412;9.514;2022-12-18T12:23:43;7.18;;;5.97;;
12976;SDS011;6553;48.412;9.514;2022-12-18T12:26:38;6.97;;;5.78;;
12976;SDS011;6553;48.412;9.514;2022-12-18T12:29:36;6.03;;;5.32;;
12976;SDS011;6553;48.412;9.514;2022-12-18T12:32:34;6.55;;;5.85;;
12976;SDS011;6553;48.412;9.514;2022-12-18T12:38:24;6.47;;;5.72;;
12976;SDS011;6553;48.412;9.514;2022-12-18T12:41:01;6.25;;;5.63;;
12976;SDS011;6553;48.412;9.514;2022-12-18T12:43:51;6.35;;;5.75;;
12976;SDS011;6553;48.412;9.514;2022-12-18T12:46:22;6.38;;;5.65;;
12976;SDS011;6553;48.412;9.514;2022-12-18T12:48:55;6.32;;;5.72;;
12976;SDS011;6553;48.412;9.514;2022-12-18T12:51:34;6.47;;;5.82;;
12976;SDS011;6553;48.412;9.514;2022-12-18T12:54:04;6.57;;;5.88;;
12976;SDS011;6553;48.412;9.514;2022-12-18T12:56:49;6.78;;;6.00;;
12976;SDS011;6553;48.412;9.514;2022-12-18T12:59:45;6.85;;;5.93;;
12976;SDS011;6553;48.412;9.514;2022-12-18T13:08:09;6.65;;;5.68;;
12976;SDS011;6553;48.412;9.514;2022-12-18T13:10:46;6.28;;;5.63;;
12976;SDS011;6553;48.412;9.514;2022-12-18T13:13:16;6.28;;;5.68;;
12976;SDS011;6553;48.412;9.514;2022-12-18T13:15:42;6.55;;;5.88;;
12976;SDS011;6553;48.412;9.514;2022-12-18T13:18:21;6.82;;;6.13;;
12976;SDS011;6553;48.412;9.514;2022-12-18T13:20:50;6.75;;;5.50;;
12976;SDS011;6553;48.412;9.514;2022-12-18T13:23:45;6.50;;;5.80;;
12976;SDS011;6553;48.412;9.514;2022-12-18T13:36:37;6.10;;;5.50;;
12976;SDS011;6553;48.412;9.514;2022-12-18T13:41:44;6.50;;;5.80;;
12976;SDS011;6553;48.412;9.514;2022-12-18T13:44:13;5.95;;;5.30;;
12976;SDS011;6553;48.412;9.514;2022-12-18T13:46:54;6.85;;;6.05;;
12976;SDS011;6553;48.412;9.514;2022-12-18T13:52:15;7.90;;;6.15;;
12976;SDS011;6553;48.412;9.514;2022-12-18T13:54:58;6.10;;;5.47;;
12976;SDS011;6553;48.412;9.514;2022-12-18T13:57:28;6.80;;;5.15;;
12976;SDS011;6553;48.412;9.514;2022-12-18T13:59:57;6.30;;;5.70;;
12976;SDS011;6553;48.412;9.514;2022-12-18T14:02:48;7.10;;;5.72;;
12976;SDS011;6553;48.412;9.514;2022-12-18T14:05:22;6.35;;;5.72;;
12976;SDS011;6553;48.412;9.514;2022-12-18T14:07:51;6.25;;;5.35;;
12976;SDS011;6553;48.412;9.514;2022-12-18T14:10:19;5.78;;;5.18;;
12976;SDS011;6553;48.412;9.514;2022-12-18T14:12:48;5.85;;;5.10;;
12976;SDS011;6553;48.412;9.514;2022-12-18T14:15:28;7.15;;;5.97;;
12976;SDS011;6553;48.412;9.514;2022-12-18T14:20:55;5.75;;;5.15;;
12976;SDS011;6553;48.412;9.514;2022-12-18T14:23:25;6.30;;;5.40;;
12976;SDS011;6553;48.412;9.514;2022-12-18T14:25:59;5.95;;;5.35;;
12976;SDS011;6553;48.412;9.514;2022-12-18T14:28:28;5.28;;;4.78;;
12976;SDS011;6553;48.412;9.514;2022-12-18T14:30:54;5.63;;;5.05;;
12976;SDS011;6553;48.412;9.514;2022-12-18T14:33:25;5.43;;;4.80;;
12976;SDS011;6553;48.412;9.514;2022-12-18T14:38:35;5.95;;;5.20;;
12976;SDS011;6553;48.412;9.514;2022-12-18T14:41:05;5.50;;;5.00;;
12976;SDS011;6553;48.412;9.514;2022-12-18T14:43:37;5.78;;;5.15;;
12976;SDS011;6553;48.412;9.514;2022-12-18T14:49:26;5.63;;;5.13;;
12976;SDS011;6553;48.412;9.514;2022-12-18T14:52:01;5.30;;;4.80;;
12976;SDS011;6553;48.412;9.514;2022-12-18T14:54:29;5.47;;;4.90;;
12976;SDS011;6553;48.412;9.514;2022-12-18T14:57:00;5.88;;;5.28;;
12976;SDS011;6553;48.412;9.514;2022-12-18T14:59:38;6.32;;;5.72;;
12976;SDS011;6553;48.412;9.514;2022-12-18T15:02:10;5.85;;;5.35;;
12976;SDS011;6553;48.412;9.514;2022-12-18T15:04:47;5.97;;;5.38;;
12976;SDS011;6553;48.412;9.514;2022-12-18T15:07:45;5.80;;;5.00;;
12976;SDS011;6553;48.412;9.514;2022-12-18T15:10:15;5.75;;;4.72;;
12976;SDS011;6553;48.412;9.514;2022-12-18T15:18:02;5.40;;;4.82;;
12976;SDS011;6553;48.412;9.514;2022-12-18T15:23:17;5.60;;;4.90;;
12976;SDS011;6553;48.412;9.514;2022-12-18T15:26:04;5.88;;;5.13;;
12976;SDS011;6553;48.412;9.514;2022-12-18T15:33:41;5.68;;;5.07;;
12976;SDS011;6553;48.412;9.514;2022-12-18T15:36:18;5.57;;;5.07;;
12976;SDS011;6553;48.412;9.514;2022-12-18T15:38:50;5.22;;;4.72;;
12976;SDS011;6553;48.412;9.514;2022-12-18T15:41:19;5.68;;;5.18;;
12976;SDS011;6553;48.412;9.514;2022-12-18T15:43:47;5.82;;;5.25;;
12976;SDS011;6553;48.412;9.514;2022-12-18T15:46:16;5.85;;;5.25;;
12976;SDS011;6553;48.412;9.514;2022-12-18T15:48:50;6.15;;;5.55;;
12976;SDS011;6553;48.412;9.514;2022-12-18T15:54:03;6.15;;;5.55;;
12976;SDS011;6553;48.412;9.514;2022-12-18T15:56:36;5.93;;;5.28;;
12976;SDS011;6553;48.412;9.514;2022-12-18T15:59:20;5.22;;;4.72;;
12976;SDS011;6553;48.412;9.514;2022-12-18T16:01:47;5.90;;;5.05;;
12976;SDS011;6553;48.412;9.514;2022-12-18T16:04:16;5.68;;;5.07;;
12976;SDS011;6553;48.412;9.514;2022-12-18T16:06:48;6.05;;;5.28;;
12976;SDS011;6553;48.412;9.514;2022-12-18T16:09:14;5.85;;;5.35;;
12976;SDS011;6553;48.412;9.514;2022-12-18T16:11:41;5.43;;;4.80;;
12976;SDS011;6553;48.412;9.514;2022-12-18T16:14:19;6.78;;;5.47;;
12976;SDS011;6553;48.412;9.514;2022-12-18T16:16:49;5.97;;;5.20;;
12976;SDS011;6553;48.412;9.514;2022-12-18T16:19:19;7.13;;;5.85;;
12976;SDS011;6553;48.412;9.514;2022-12-18T16:21:46;7.10;;;6.15;;
12976;SDS011;6553;48.412;9.514;2022-12-18T16:24:21;6.57;;;5.65;;
12976;SDS011;6553;48.412;9.514;2022-12-18T16:26:58;6.15;;;5.13;;
12976;SDS011;6553;48.412;9.514;2022-12-18T16:29:26;6.45;;;5.28;;
12976;SDS011;6553;48.412;9.514;2022-12-18T16:31:54;6.05;;;5.43;;
12976;SDS011;6553;48.412;9.514;2022-12-18T16:36:53;6.43;;;4.97;;
12976;SDS011;6553;48.412;9.514;2022-12-18T16:39:21;6.20;;;5.60;;
12976;SDS011;6553;48.412;9.514;2022-12-18T16:41:47;6.43;;;5.38;;
12976;SDS011;6553;48.412;9.514;2022-12-18T16:44:13;6.20;;;5.47;;
12976;SDS011;6553;48.412;9.514;2022-12-18T16:46:40;6.22;;;4.65;;
12976;SDS011;6553;48.412;9.514;2022-12-18T16:49:10;5.68;;;5.13;;
12976;SDS011;6553;48.412;9.514;2022-12-18T16:51:38;5.72;;;5.13;;
12976;SDS011;6553;48.412;9.514;2022-12-18T16:54:04;6.05;;;5.18;;
12976;SDS011;6553;48.412;9.514;2022-12-18T16:56:30;5.65;;;4.90;;
12976;SDS011;6553;48.412;9.514;2022-12-18T16:58:57;7.78;;;5.32;;
12976;SDS011;6553;48.412;9.514;2022-12-18T17:01:26;7.63;;;5.60;;
12976;SDS011;6553;48.412;9.514;2022-12-18T17:03:57;6.63;;;5.40;;
12976;SDS011;6553;48.412;9.514;2022-12-18T17:06:30;5.53;;;5.03;;
12976;SDS011;6553;48.412;9.514;2022-12-18T17:09:03;5.82;;;5.32;;
12976;SDS011;6553;48.412;9.514;2022-12-18T17:11:33;6.03;;;5.43;;
12976;SDS011;6553;48.412;9.514;2022-12-18T17:14:04;5.40;;;4.90;;
12976;SDS011;6553;48.412;9.514;2022-12-18T17:16:45;6.22;;;5.03;;
12976;SDS011;6553;48.412;9.514;2022-12-18T17:19:12;6.13;;;5.32;;
12976;SDS011;6553;48.412;9.514;2022-12-18T17:21:40;5.63;;;5.03;;
12976;SDS011;6553;48.412;9.514;2022-12-18T17:24:08;6.28;;;5.55;;
12976;SDS011;6553;48.412;9.514;2022-12-18T17:26:35;5.35;;;4.85;;
12976;SDS011;6553;48.412;9.514;2022-12-18T17:29:01;6.00;;;5.40;;
12976;SDS011;6553;48.412;9.514;2022-12-18T17:31:27;6.20;;;5.40;;
12976;SDS011;6553;48.412;9.514;2022-12-18T17:33:55;11.10;;;5.80;;
12976;SDS011;6553;48.412;9.514;2022-12-18T17:36:22;6.18;;;5.45;;
12976;SDS011;6553;48.412;9.514;2022-12-18T17:38:53;6.15;;;5.22;;